Halifax (YHZ/CYHZ)

Map

Destinations

Information

Location
Halifax, Nova Scotia, Canada
CYHZ -
Bad Timezone: GMT-4
Local Time
GMT Time
00:16 / 12:16 am
Gates
Unassigned
No FAA reported delays
METAR CYHZ 230000Z 13004KT 15SM BKN075 00/M01 A2950 RMK AC7 SLP998
TAF TAF CYHZ 222338Z 2300/2324 16006KT P6SM FEW090 TEMPO 2300/2301 2SM -SHSN BKN015 OVC050 BECMG 2300/2301 31012KT FM230200 32020G35KT 2SM -SHSN OVC015 TEMPO 2302/2304 3/4SM -SHSN VV008 FM230400 32020G35KT 2SM -SHSN BLSN OVC020 FM230500 32025G40KT 4SM -SN BLSN OVC020 PROB30 2305/2311 2SM -SHSN FM231100 32020G30KT P6SM -SN BKN025 FM231500 32015G25KT P6SM BKN030 FM231800 32012G22KT P6SM SCT030 BECMG 2322/2324 32010KT RMK NXT FCST BY 230300Z
  • No charts available